createdAt,value
2019-02-11T00:00:35.394Z,11.95
2019-02-11T00:01:08.580Z,11.70
2019-02-11T00:01:39.810Z,11.46
2019-02-11T00:02:12.884Z,11.23
2019-02-11T00:02:44.157Z,11.02
2019-02-11T00:03:15.440Z,10.79
2019-02-11T00:03:46.702Z,10.60
2019-02-11T00:04:17.889Z,10.38
2019-02-11T00:04:49.137Z,10.19
2019-02-11T00:05:20.318Z,9.99
2019-02-11T00:05:51.588Z,9.81
2019-02-11T00:06:22.775Z,9.68
2019-02-11T00:06:54.061Z,9.62
2019-02-11T00:07:26.267Z,9.70
2019-02-11T00:07:57.531Z,9.85
2019-02-11T00:08:28.721Z,10.07
2019-02-11T00:08:59.963Z,10.30
2019-02-11T00:09:31.183Z,10.57
2019-02-11T00:10:03.541Z,10.81
2019-02-11T00:10:34.711Z,11.05
2019-02-11T00:11:05.960Z,11.27
2019-02-11T00:11:37.161Z,11.50
2019-02-11T00:12:08.563Z,11.70
2019-02-11T00:12:39.771Z,11.88
2019-02-11T00:13:11.126Z,12.03
2019-02-11T00:13:42.370Z,12.22
2019-02-11T00:14:13.725Z,12.35
2019-02-11T00:14:44.905Z,12.40
2019-02-11T00:15:16.143Z,12.36
2019-02-11T00:15:48.351Z,12.25
2019-02-11T00:16:19.587Z,12.08
2019-02-11T00:16:50.765Z,11.89
2019-02-11T00:17:22.023Z,11.68
2019-02-11T00:17:53.296Z,11.50
2019-02-11T00:18:24.590Z,11.26
2019-02-11T00:18:55.873Z,11.05
2019-02-11T00:19:27.202Z,10.85
2019-02-11T00:19:58.486Z,10.65
2019-02-11T00:20:29.780Z,10.44
2019-02-11T00:21:01.095Z,10.24
2019-02-11T00:21:32.386Z,10.03
2019-02-11T00:22:03.712Z,9.86
2019-02-11T00:22:35.070Z,9.70
2019-02-11T00:23:06.360Z,9.66
2019-02-11T00:23:37.539Z,9.70
2019-02-11T00:24:08.802Z,9.84
2019-02-11T00:24:39.982Z,10.06
2019-02-11T00:25:11.614Z,10.27
2019-02-11T00:25:42.822Z,10.54
2019-02-11T00:26:14.092Z,10.81
2019-02-11T00:26:45.275Z,10.99
2019-02-11T00:27:16.543Z,11.24
2019-02-11T00:27:47.784Z,11.44
2019-02-11T00:28:19.046Z,11.63
2019-02-11T00:28:50.235Z,11.77
2019-02-11T00:29:21.471Z,11.93
2019-02-11T00:29:52.701Z,12.08
2019-02-11T00:30:23.943Z,12.19
2019-02-11T00:30:55.165Z,12.32
2019-02-11T00:31:26.489Z,12.33
2019-02-11T00:31:57.798Z,12.28
2019-02-11T00:32:29.096Z,12.13
2019-02-11T00:33:00.520Z,11.95
2019-02-11T00:33:31.881Z,11.74
2019-02-11T00:34:03.061Z,11.54
2019-02-11T00:34:34.305Z,11.31
2019-02-11T00:35:06.281Z,11.09
2019-02-11T00:35:37.533Z,10.86
2019-02-11T00:36:08.781Z,10.64
2019-02-11T00:36:40.132Z,10.44
2019-02-11T00:37:11.319Z,10.24
2019-02-11T00:37:42.660Z,10.05
2019-02-11T00:38:13.871Z,9.88
2019-02-11T00:38:45.168Z,9.73
2019-02-11T00:39:16.339Z,9.69
2019-02-11T00:39:47.898Z,9.72
2019-02-11T00:40:19.097Z,9.86
2019-02-11T00:40:50.343Z,10.06
2019-02-11T00:41:21.537Z,10.23
2019-02-11T00:41:52.762Z,10.48
2019-02-11T00:42:23.988Z,10.70
2019-02-11T00:42:55.213Z,10.91
2019-02-11T00:43:26.390Z,11.12
2019-02-11T00:43:57.648Z,11.30
2019-02-11T00:44:29.052Z,11.49
2019-02-11T00:45:00.430Z,11.68
2019-02-11T00:45:31.687Z,11.82
2019-02-11T00:46:03.016Z,11.98
2019-02-11T00:46:34.229Z,12.13
2019-02-11T00:47:06.497Z,12.29
2019-02-11T00:47:37.682Z,12.39
2019-02-11T00:48:09.117Z,12.37
2019-02-11T00:48:40.304Z,12.30
2019-02-11T00:49:11.679Z,12.16
2019-02-11T00:49:42.943Z,12.01
2019-02-11T00:50:14.189Z,11.78
2019-02-11T00:50:45.374Z,11.57
2019-02-11T00:51:16.645Z,11.31
2019-02-11T00:51:47.843Z,11.10
2019-02-11T00:52:19.107Z,10.88
2019-02-11T00:52:50.384Z,10.70
2019-02-11T00:53:21.719Z,10.48
2019-02-11T00:53:52.925Z,10.28
2019-02-11T00:54:25.196Z,10.10
2019-02-11T00:54:56.497Z,9.90
2019-02-11T00:55:27.733Z,9.79
2019-02-11T00:55:58.887Z,9.73
2019-02-11T00:56:30.154Z,9.84
2019-02-11T00:57:01.333Z,9.98
2019-02-11T00:57:32.596Z,10.24
2019-02-11T00:58:03.796Z,10.45
2019-02-11T00:58:35.055Z,10.72
2019-02-11T00:59:06.287Z,10.98
2019-02-11T00:59:37.543Z,11.20
2019-02-11T01:00:10.847Z,11.44
2019-02-11T01:00:42.431Z,11.67
2019-02-11T01:01:13.637Z,11.84
2019-02-11T01:01:44.872Z,12.05
2019-02-11T01:02:17.164Z,12.20
2019-02-11T01:02:48.400Z,12.36
2019-02-11T01:03:19.608Z,12.50
2019-02-11T01:03:50.854Z,12.50
2019-02-11T01:04:22.060Z,12.47
2019-02-11T01:04:53.358Z,12.32
2019-02-11T01:05:24.688Z,12.16
2019-02-11T01:05:55.959Z,11.98
2019-02-11T01:06:27.218Z,11.77
2019-02-11T01:06:58.488Z,11.54
2019-02-11T01:07:29.770Z,11.33
2019-02-11T01:08:01.028Z,11.10
2019-02-11T01:08:32.388Z,10.94
2019-02-11T01:09:04.583Z,10.72
2019-02-11T01:09:35.853Z,10.52
2019-02-11T01:10:08.689Z,10.33
2019-02-11T01:10:39.896Z,10.17
2019-02-11T01:11:11.118Z,10.00
2019-02-11T01:11:42.300Z,9.86
2019-02-11T01:12:14.486Z,9.81
2019-02-11T01:12:45.694Z,9.89
2019-02-11T01:13:16.886Z,10.03
2019-02-11T01:13:48.083Z,10.20
2019-02-11T01:14:19.309Z,10.47
2019-02-11T01:14:50.565Z,10.70
2019-02-11T01:15:21.733Z,10.92
2019-02-11T01:15:52.999Z,11.19
2019-02-11T01:16:24.200Z,11.40
2019-02-11T01:16:55.460Z,11.60
2019-02-11T01:17:26.647Z,11.84
2019-02-11T01:17:57.885Z,11.96
2019-02-11T01:18:29.085Z,12.15
2019-02-11T01:19:01.333Z,12.29
2019-02-11T01:19:32.509Z,12.43
2019-02-11T01:20:07.822Z,12.46
2019-02-11T01:20:39.097Z,12.40
2019-02-11T01:21:16.107Z,12.26
2019-02-11T01:21:55.165Z,12.03
2019-02-11T01:22:33.011Z,11.81
2019-02-11T01:23:12.051Z,11.53
2019-02-11T01:23:43.290Z,11.27
2019-02-11T01:24:14.472Z,11.07
2019-02-11T01:25:40.578Z,10.55
2019-02-11T01:26:12.240Z,10.38
2019-02-11T01:26:43.535Z,10.20
2019-02-11T01:27:14.930Z,10.05
2019-02-11T01:27:46.268Z,9.85
2019-02-11T01:28:17.565Z,9.72
2019-02-11T01:28:48.880Z,9.69
2019-02-11T01:29:20.139Z,9.73
2019-02-11T01:29:51.454Z,9.90
2019-02-11T01:30:22.705Z,10.09
2019-02-11T01:30:53.960Z,10.31
2019-02-11T01:31:25.208Z,10.54
2019-02-11T01:31:56.384Z,10.79
2019-02-11T01:32:27.635Z,11.00
2019-02-11T01:32:58.826Z,11.26
2019-02-11T01:33:30.089Z,11.47
2019-02-11T01:34:01.274Z,11.68
2019-02-11T01:34:32.528Z,11.88
2019-02-11T01:35:05.425Z,12.03
2019-02-11T01:35:36.676Z,12.20
2019-02-11T01:36:07.904Z,12.33
2019-02-11T01:36:39.304Z,12.46
2019-02-11T01:37:10.514Z,12.49
2019-02-11T01:37:41.750Z,12.46
2019-02-11T01:38:12.962Z,12.32
2019-02-11T01:38:44.231Z,12.15
2019-02-11T01:39:15.409Z,11.93
2019-02-11T01:39:46.749Z,11.78
2019-02-11T01:40:17.945Z,11.51
2019-02-11T01:40:49.207Z,11.29
2019-02-11T01:41:21.510Z,11.09
2019-02-11T01:41:52.683Z,10.84
2019-02-11T01:42:23.934Z,10.63
2019-02-11T01:42:55.112Z,10.43
2019-02-11T01:43:26.361Z,10.20
2019-02-11T01:43:57.549Z,10.03
2019-02-11T01:44:28.828Z,9.86
2019-02-11T01:45:00.005Z,9.73
2019-02-11T01:45:31.265Z,9.70
2019-02-11T01:46:02.455Z,9.78
2019-02-11T01:46:33.713Z,9.95
2019-02-11T01:47:04.929Z,10.14
2019-02-11T01:47:36.195Z,10.36
2019-02-11T01:48:07.368Z,10.61
2019-02-11T01:48:38.803Z,10.85
2019-02-11T01:49:09.948Z,11.02
2019-02-11T01:49:41.234Z,11.24
2019-02-11T01:50:12.468Z,11.42
2019-02-11T01:50:43.680Z,11.58
2019-02-11T01:51:14.869Z,11.75
2019-02-11T01:51:46.109Z,11.93
2019-02-11T01:52:17.327Z,12.03
2019-02-11T01:52:48.541Z,12.18
2019-02-11T01:53:19.751Z,12.30
2019-02-11T01:53:50.988Z,12.43
2019-02-11T01:54:22.202Z,12.43
2019-02-11T01:54:53.446Z,12.35
2019-02-11T01:55:25.632Z,12.23
2019-02-11T01:55:56.843Z,12.02
2019-02-11T01:56:28.058Z,11.81
2019-02-11T01:56:59.284Z,11.61
2019-02-11T01:57:30.506Z,11.40
2019-02-11T01:58:01.724Z,11.19
2019-02-11T01:58:32.930Z,10.99
2019-02-11T01:59:04.167Z,10.75
2019-02-11T01:59:35.380Z,10.55
2019-02-11T02:00:12.772Z,10.36
2019-02-11T02:00:44.097Z,10.13
2019-02-11T02:01:15.370Z,9.96
2019-02-11T02:01:46.647Z,9.85
2019-02-11T02:02:17.941Z,9.81
2019-02-11T02:02:49.212Z,9.90
2019-02-11T02:03:20.491Z,10.02
2019-02-11T02:03:51.792Z,10.26
2019-02-11T02:04:23.084Z,10.48
2019-02-11T02:04:54.361Z,10.68
2019-02-11T02:05:25.639Z,10.89
2019-02-11T02:05:56.861Z,11.12
2019-02-11T02:06:28.103Z,11.31
2019-02-11T02:06:59.275Z,11.51
2019-02-11T02:07:30.547Z,11.68
2019-02-11T02:08:01.709Z,11.85
2019-02-11T02:08:32.941Z,12.02
2019-02-11T02:09:04.540Z,12.18
2019-02-11T02:09:35.777Z,12.30
2019-02-11T02:10:10.992Z,12.43
2019-02-11T02:10:42.407Z,12.53
2019-02-11T02:11:13.607Z,12.54
2019-02-11T02:11:44.901Z,12.44
2019-02-11T02:12:16.108Z,12.32
2019-02-11T02:12:47.410Z,12.13
2019-02-11T02:13:18.592Z,11.91
2019-02-11T02:13:49.928Z,11.72
2019-02-11T02:14:21.110Z,11.53
2019-02-11T02:14:52.369Z,11.27
2019-02-11T02:15:23.576Z,11.06
2019-02-11T02:15:54.806Z,10.86
2019-02-11T02:16:26.014Z,10.65
2019-02-11T02:16:57.253Z,10.45
2019-02-11T02:17:28.497Z,10.26
2019-02-11T02:17:59.726Z,10.12
2019-02-11T02:18:30.941Z,10.06
2019-02-11T02:19:02.171Z,10.12
2019-02-11T02:19:33.376Z,10.24
2019-02-11T02:20:09.690Z,10.45
2019-02-11T02:20:40.924Z,10.71
2019-02-11T02:21:12.348Z,10.96
2019-02-11T02:21:43.562Z,11.17
2019-02-11T02:22:14.799Z,11.39
2019-02-11T02:22:46.016Z,11.58
2019-02-11T02:23:17.250Z,11.80
2019-02-11T02:23:48.471Z,11.99
2019-02-11T02:24:19.693Z,12.13
2019-02-11T02:24:50.893Z,12.30
2019-02-11T02:25:22.139Z,12.44
2019-02-11T02:25:53.414Z,12.60
2019-02-11T02:26:24.695Z,12.71
2019-02-11T02:26:55.997Z,12.74
2019-02-11T02:27:27.287Z,12.64
2019-02-11T02:27:58.553Z,12.53
2019-02-11T02:28:29.823Z,12.40
2019-02-11T02:29:01.101Z,12.18
2019-02-11T02:29:32.387Z,11.95
2019-02-11T02:30:07.638Z,11.75
2019-02-11T02:30:39.131Z,11.51
2019-02-11T02:31:10.361Z,11.26
2019-02-11T02:31:41.634Z,11.06
2019-02-11T02:32:12.829Z,10.85
2019-02-11T02:32:44.090Z,10.67
2019-02-11T02:33:15.391Z,10.47
2019-02-11T02:33:46.661Z,10.28
2019-02-11T02:34:17.830Z,10.14
2019-02-11T02:34:49.067Z,10.09
2019-02-11T02:35:20.316Z,10.19
2019-02-11T02:35:51.610Z,10.30
2019-02-11T02:36:22.905Z,10.48
2019-02-11T02:36:54.161Z,10.70
2019-02-11T02:37:25.450Z,10.94
2019-02-11T02:37:56.760Z,11.15
2019-02-11T02:38:28.058Z,11.36
2019-02-11T02:38:59.422Z,11.57
2019-02-11T02:39:30.839Z,11.75
2019-02-11T02:40:04.798Z,11.91
2019-02-11T02:40:36.078Z,12.08
2019-02-11T02:41:07.250Z,12.20
2019-02-11T02:41:38.461Z,12.33
2019-02-11T02:42:09.713Z,12.49
2019-02-11T02:42:40.893Z,12.64
2019-02-11T02:43:13.090Z,12.72
2019-02-11T02:43:44.315Z,12.84
2019-02-11T02:44:15.498Z,12.85
2019-02-11T02:44:46.689Z,12.77
2019-02-11T02:45:17.951Z,12.67
2019-02-11T02:45:49.174Z,12.47
2019-02-11T02:46:20.380Z,12.26
2019-02-11T02:46:51.660Z,12.03
2019-02-11T02:47:22.919Z,11.80
2019-02-11T02:47:54.173Z,11.60
2019-02-11T02:48:25.417Z,11.37
2019-02-11T02:48:56.718Z,11.19
2019-02-11T02:49:27.899Z,10.95
2019-02-11T02:49:59.159Z,10.76
2019-02-11T02:50:30.318Z,10.60
2019-02-11T02:51:01.621Z,10.44
2019-02-11T02:51:32.786Z,10.37
2019-02-11T02:52:04.051Z,10.41
2019-02-11T02:52:35.237Z,10.52
2019-02-11T02:53:07.467Z,10.71
2019-02-11T02:53:38.675Z,10.88
2019-02-11T02:54:09.953Z,11.09
2019-02-11T02:54:41.165Z,11.30
2019-02-11T02:55:12.420Z,11.49
2019-02-11T02:55:43.602Z,11.68
2019-02-11T02:56:14.879Z,11.84
2019-02-11T02:56:46.059Z,12.01
2019-02-11T02:57:17.293Z,12.15
2019-02-11T02:57:48.474Z,12.26
2019-02-11T02:58:19.734Z,12.39
2019-02-11T02:58:50.917Z,12.53
2019-02-11T02:59:22.172Z,12.66
2019-02-11T02:59:53.375Z,12.77
2019-02-11T03:00:24.636Z,12.88
2019-02-11T03:00:55.845Z,12.97
2019-02-11T03:01:27.200Z,12.99
2019-02-11T03:01:58.384Z,12.92
2019-02-11T03:02:29.620Z,12.77
2019-02-11T03:03:00.813Z,12.63
2019-02-11T03:03:32.044Z,12.39
2019-02-11T03:04:03.207Z,12.16
2019-02-11T03:04:34.463Z,11.95
2019-02-11T03:05:07.732Z,11.71
2019-02-11T03:05:38.968Z,11.46
2019-02-11T03:06:10.162Z,11.24
2019-02-11T03:06:41.767Z,11.05
2019-02-11T03:07:12.972Z,10.84
2019-02-11T03:07:44.224Z,10.65
2019-02-11T03:08:15.406Z,10.49
2019-02-11T03:08:46.668Z,10.43
2019-02-11T03:09:17.853Z,10.49
2019-02-11T03:09:49.090Z,10.60
2019-02-11T03:10:21.276Z,10.79
2019-02-11T03:10:52.542Z,10.98
2019-02-11T03:11:23.756Z,11.20
2019-02-11T03:11:54.978Z,11.40
2019-02-11T03:12:26.229Z,11.61
2019-02-11T03:12:57.409Z,11.77
2019-02-11T03:13:28.657Z,11.96
2019-02-11T03:14:05.871Z,12.12
2019-02-11T03:14:33.000Z,12.29
2019-02-11T03:15:08.199Z,12.43
2019-02-11T03:15:39.472Z,12.57
2019-02-11T03:16:10.655Z,12.67
2019-02-11T03:16:42.919Z,12.80
2019-02-11T03:17:14.103Z,12.90
2019-02-11T03:17:45.367Z,12.97
2019-02-11T03:18:16.606Z,13.02
2019-02-11T03:18:47.847Z,13.04
2019-02-11T03:19:19.035Z,12.92
2019-02-11T03:19:50.309Z,12.75
2019-02-11T03:20:21.549Z,12.54
2019-02-11T03:20:52.857Z,12.29
2019-02-11T03:21:24.016Z,12.08
2019-02-11T03:21:55.319Z,11.81
2019-02-11T03:22:26.502Z,11.57
2019-02-11T03:22:57.746Z,11.33
2019-02-11T03:23:28.973Z,11.13
2019-02-11T03:24:00.216Z,10.94
2019-02-11T03:24:31.386Z,10.74
2019-02-11T03:25:05.209Z,10.60
2019-02-11T03:25:36.402Z,10.51
2019-02-11T03:26:07.750Z,10.55
2019-02-11T03:26:39.313Z,10.67
2019-02-11T03:27:10.599Z,10.85
2019-02-11T03:27:41.799Z,11.06
2019-02-11T03:28:13.059Z,11.24
2019-02-11T03:28:44.258Z,11.44
2019-02-11T03:29:15.492Z,11.65
2019-02-11T03:29:46.686Z,11.84
2019-02-11T03:30:17.929Z,12.01
2019-02-11T03:30:49.102Z,12.15
2019-02-11T03:31:20.350Z,12.30
2019-02-11T03:31:51.547Z,12.44
2019-02-11T03:32:22.883Z,12.59
2019-02-11T03:32:54.056Z,12.71
2019-02-11T03:33:25.348Z,12.84
2019-02-11T03:33:56.553Z,12.92
2019-02-11T03:34:27.821Z,13.02
2019-02-11T03:34:59.018Z,13.05
2019-02-11T03:35:30.259Z,12.95
2019-02-11T03:36:01.443Z,12.81
2019-02-11T03:36:32.716Z,12.60
2019-02-11T03:37:03.869Z,12.36
2019-02-11T03:37:35.122Z,12.15
2019-02-11T03:38:06.289Z,11.89
2019-02-11T03:38:37.525Z,11.65
2019-02-11T03:39:08.721Z,11.44
2019-02-11T03:39:39.995Z,11.22
2019-02-11T03:40:11.285Z,10.95
2019-02-11T03:40:42.548Z,10.75
2019-02-11T03:41:13.723Z,10.57
2019-02-11T03:41:44.977Z,10.48
2019-02-11T03:42:16.138Z,10.49
2019-02-11T03:42:47.392Z,10.61
2019-02-11T03:43:18.575Z,10.75
2019-02-11T03:43:49.820Z,10.95
2019-02-11T03:44:21.024Z,11.17
2019-02-11T03:44:52.271Z,11.37
2019-02-11T03:45:23.666Z,11.57
2019-02-11T03:45:54.950Z,11.77
2019-02-11T03:46:26.150Z,11.96
2019-02-11T03:46:57.395Z,12.12
2019-02-11T03:47:28.582Z,12.30
2019-02-11T03:47:59.840Z,12.46
2019-02-11T03:48:31.062Z,12.63
2019-02-11T03:49:02.304Z,12.75
2019-02-11T03:49:33.486Z,12.88
2019-02-11T03:50:10.566Z,13.02
2019-02-11T03:50:41.760Z,13.09
2019-02-11T03:51:13.015Z,13.09
2019-02-11T03:51:44.207Z,13.02
2019-02-11T03:52:15.466Z,12.87
2019-02-11T03:52:46.656Z,12.68
2019-02-11T03:53:17.948Z,12.46
2019-02-11T03:53:49.238Z,12.23
2019-02-11T03:54:20.461Z,12.01
2019-02-11T03:54:51.644Z,11.77
2019-02-11T03:55:22.905Z,11.53
2019-02-11T03:55:54.084Z,11.31
2019-02-11T03:56:25.346Z,11.10
2019-02-11T03:56:56.561Z,10.89
2019-02-11T03:57:27.827Z,10.68
2019-02-11T03:57:59.014Z,10.54
2019-02-11T03:58:31.357Z,10.49
2019-02-11T03:59:02.542Z,10.54
2019-02-11T03:59:33.787Z,10.70
2019-02-11T04:00:09.781Z,10.89
2019-02-11T04:00:40.971Z,11.15
2019-02-11T04:01:12.204Z,11.37
2019-02-11T04:01:43.403Z,11.60
2019-02-11T04:02:14.642Z,11.78
2019-02-11T04:02:45.846Z,11.99
2019-02-11T04:03:17.044Z,12.18
2019-02-11T04:03:48.249Z,12.36
2019-02-11T04:04:19.461Z,12.53
2019-02-11T04:04:50.703Z,12.68
2019-02-11T04:05:21.922Z,12.80
2019-02-11T04:05:53.129Z,12.94
2019-02-11T04:06:24.371Z,13.05
2019-02-11T04:06:55.595Z,13.14
2019-02-11T04:07:26.809Z,13.15
2019-02-11T04:07:58.021Z,13.05
2019-02-11T04:08:29.252Z,12.94
2019-02-11T04:09:00.483Z,12.72
2019-02-11T04:09:31.679Z,12.50
2019-02-11T04:10:09.050Z,12.28
2019-02-11T04:10:40.283Z,12.02
2019-02-11T04:11:11.624Z,11.84
2019-02-11T04:11:42.852Z,11.61
2019-02-11T04:12:15.066Z,11.39
2019-02-11T04:12:46.252Z,11.16
2019-02-11T04:13:17.528Z,10.96
2019-02-11T04:13:48.806Z,10.78
2019-02-11T04:14:25.095Z,10.64
2019-02-11T04:14:53.155Z,10.57
2019-02-11T04:15:24.427Z,10.64
2019-02-11T04:15:55.618Z,10.76
2019-02-11T04:16:26.874Z,10.95
2019-02-11T04:16:58.062Z,11.17
2019-02-11T04:17:29.326Z,11.36
2019-02-11T04:18:00.506Z,11.61
2019-02-11T04:18:31.740Z,11.81
2019-02-11T04:19:02.954Z,12.01
2019-02-11T04:19:34.187Z,12.19
2019-02-11T04:20:06.764Z,12.33
2019-02-11T04:20:38.694Z,12.47
2019-02-11T04:21:09.864Z,12.60
2019-02-11T04:21:41.103Z,12.72
2019-02-11T04:22:12.292Z,12.85
2019-02-11T04:22:43.541Z,12.97
2019-02-11T04:23:14.735Z,13.07
2019-02-11T04:23:46.006Z,13.12
2019-02-11T04:24:17.205Z,13.11
2019-02-11T04:24:48.468Z,13.02
2019-02-11T04:25:19.679Z,12.87
2019-02-11T04:25:50.923Z,12.68
2019-02-11T04:26:22.146Z,12.46
2019-02-11T04:26:53.433Z,12.22
2019-02-11T04:27:24.715Z,12.01
2019-02-11T04:27:56.003Z,11.77
2019-02-11T04:28:27.271Z,11.55
2019-02-11T04:28:58.763Z,11.31
2019-02-11T04:29:30.178Z,11.07
2019-02-11T04:30:01.461Z,10.86
2019-02-11T04:30:32.642Z,10.67
2019-02-11T04:31:03.907Z,10.54
2019-02-11T04:31:35.116Z,10.49
2019-02-11T04:32:06.372Z,10.55
2019-02-11T04:32:37.569Z,10.72
2019-02-11T04:33:09.823Z,10.91
2019-02-11T04:33:41.053Z,11.10
2019-02-11T04:34:12.451Z,11.30
2019-02-11T04:34:43.688Z,11.50
2019-02-11T04:35:14.930Z,11.71
2019-02-11T04:35:46.151Z,11.89
2019-02-11T04:36:17.408Z,12.06
2019-02-11T04:36:48.590Z,12.22
2019-02-11T04:37:19.830Z,12.35
2019-02-11T04:37:51.008Z,12.50
2019-02-11T04:38:22.236Z,12.63
2019-02-11T04:38:53.404Z,12.75
2019-02-11T04:39:24.663Z,12.88
2019-02-11T04:39:55.875Z,12.98
2019-02-11T04:40:27.182Z,13.08
2019-02-11T04:40:58.481Z,13.18
2019-02-11T04:41:29.710Z,13.17
2019-02-11T04:42:00.895Z,13.07
2019-02-11T04:42:32.144Z,12.90
2019-02-11T04:43:03.321Z,12.68
2019-02-11T04:43:34.575Z,12.47
2019-02-11T04:44:05.770Z,12.25
2019-02-11T04:44:37.011Z,12.02
2019-02-11T04:45:08.681Z,11.77
2019-02-11T04:45:39.904Z,11.53
2019-02-11T04:46:11.109Z,11.30
2019-02-11T04:46:42.347Z,11.10
2019-02-11T04:47:13.529Z,10.85
2019-02-11T04:47:45.780Z,10.71
2019-02-11T04:48:16.959Z,10.55
2019-02-11T04:48:48.241Z,10.49
2019-02-11T04:49:19.421Z,10.57
2019-02-11T04:49:50.707Z,10.70
2019-02-11T04:50:21.919Z,10.85
2019-02-11T04:50:53.201Z,11.07
2019-02-11T04:51:24.487Z,11.27
2019-02-11T04:51:55.790Z,11.47
2019-02-11T04:52:27.080Z,11.68
2019-02-11T04:52:58.370Z,11.86
2019-02-11T04:53:29.650Z,12.02
2019-02-11T04:54:00.989Z,12.16
2019-02-11T04:54:32.273Z,12.35
2019-02-11T04:55:06.864Z,12.49
2019-02-11T04:55:38.109Z,12.61
2019-02-11T04:56:09.298Z,12.74
2019-02-11T04:56:40.586Z,12.88
2019-02-11T04:57:11.852Z,12.95
2019-02-11T04:57:43.099Z,13.05
2019-02-11T04:58:14.284Z,13.08
2019-02-11T04:58:45.524Z,12.99
2019-02-11T04:59:16.732Z,12.85
2019-02-11T04:59:47.966Z,12.66
2019-02-11T05:00:19.205Z,12.46
2019-02-11T05:00:50.420Z,12.20
2019-02-11T05:01:21.647Z,11.99
2019-02-11T05:01:52.882Z,11.74
2019-02-11T05:02:24.129Z,11.53
2019-02-11T05:02:55.327Z,11.31
2019-02-11T05:03:26.552Z,11.09
2019-02-11T05:03:57.756Z,10.91
2019-02-11T05:04:28.991Z,10.72
2019-02-11T05:05:00.234Z,10.58
2019-02-11T05:05:31.549Z,10.52
2019-02-11T05:06:02.757Z,10.57
2019-02-11T05:06:33.981Z,10.68
2019-02-11T05:07:06.847Z,10.88
2019-02-11T05:07:38.113Z,11.07
2019-02-11T05:08:09.325Z,11.31
2019-02-11T05:08:40.556Z,11.51
2019-02-11T05:09:11.791Z,11.74
2019-02-11T05:09:42.995Z,11.93
2019-02-11T05:10:15.426Z,12.11
2019-02-11T05:10:46.645Z,12.29
2019-02-11T05:11:17.860Z,12.44
2019-02-11T05:11:49.195Z,12.59
2019-02-11T05:12:20.419Z,12.74
2019-02-11T05:12:51.591Z,12.85
2019-02-11T05:13:22.853Z,12.97
2019-02-11T05:13:54.057Z,13.08
2019-02-11T05:14:25.306Z,13.17
2019-02-11T05:14:56.512Z,13.17
2019-02-11T05:15:27.756Z,13.07
2019-02-11T05:15:58.972Z,12.94
2019-02-11T05:16:30.200Z,12.77
2019-02-11T05:17:01.412Z,12.54
2019-02-11T05:17:32.632Z,12.33
2019-02-11T05:18:03.863Z,12.11
2019-02-11T05:18:35.163Z,11.85
2019-02-11T05:19:06.379Z,11.64
2019-02-11T05:19:37.622Z,11.42
2019-02-11T05:20:10.784Z,11.22
2019-02-11T05:20:42.354Z,11.02
2019-02-11T05:21:13.968Z,10.84
2019-02-11T05:21:45.210Z,10.67
2019-02-11T05:22:16.428Z,10.64
2019-02-11T05:22:47.670Z,10.68
2019-02-11T05:23:18.960Z,10.81
2019-02-11T05:23:50.200Z,10.98
2019-02-11T05:24:21.525Z,11.20
2019-02-11T05:24:52.859Z,11.40
2019-02-11T05:25:24.087Z,11.60
2019-02-11T05:25:55.434Z,11.80
2019-02-11T05:26:26.655Z,11.99
2019-02-11T05:26:57.995Z,12.15
2019-02-11T05:27:29.885Z,12.30
2019-02-11T05:28:01.162Z,12.47
2019-02-11T05:28:32.448Z,12.61
2019-02-11T05:29:04.657Z,12.77
2019-02-11T05:29:36.003Z,12.90
2019-02-11T05:30:10.104Z,12.99
2019-02-11T05:30:41.565Z,13.11
2019-02-11T05:31:12.803Z,13.18
2019-02-11T05:31:43.993Z,13.21
2019-02-11T05:32:15.235Z,13.15
2019-02-11T05:32:46.470Z,13.01
2019-02-11T05:33:17.745Z,12.82
2019-02-11T05:33:49.028Z,12.61
2019-02-11T05:34:20.440Z,12.39
2019-02-11T05:34:51.695Z,12.16
2019-02-11T05:35:23.925Z,11.89
2019-02-11T05:35:55.148Z,11.70
2019-02-11T05:36:26.400Z,11.46
2019-02-11T05:36:57.641Z,11.26
2019-02-11T05:37:28.884Z,11.07
2019-02-11T05:38:00.048Z,10.88
2019-02-11T05:38:31.294Z,10.71
2019-02-11T05:39:04.519Z,10.63
2019-02-11T05:39:35.766Z,10.71
2019-02-11T05:40:10.378Z,10.84
2019-02-11T05:40:41.724Z,11.03
2019-02-11T05:41:12.979Z,11.24
2019-02-11T05:41:44.283Z,11.47
2019-02-11T05:42:15.560Z,11.71
2019-02-11T05:42:46.850Z,11.91
2019-02-11T05:43:18.068Z,12.11
2019-02-11T05:43:49.306Z,12.26
2019-02-11T05:44:20.475Z,12.40
2019-02-11T05:44:53.903Z,12.59
2019-02-11T05:45:24.774Z,12.71
2019-02-11T05:45:56.042Z,12.85
2019-02-11T05:46:27.352Z,12.95
2019-02-11T05:46:58.557Z,13.07
2019-02-11T05:47:29.872Z,13.11
2019-02-11T05:48:01.107Z,13.12
2019-02-11T05:48:32.310Z,13.05
2019-02-11T05:49:03.531Z,12.91
2019-02-11T05:49:34.746Z,12.72
2019-02-11T05:50:09.385Z,12.50
2019-02-11T05:50:40.627Z,12.28
2019-02-11T05:51:11.918Z,12.02
2019-02-11T05:51:43.146Z,11.84
2019-02-11T05:52:14.355Z,11.60
2019-02-11T05:52:45.577Z,11.40
2019-02-11T05:53:16.802Z,11.22
2019-02-11T05:53:48.019Z,11.02
2019-02-11T05:54:19.222Z,10.82
2019-02-11T05:54:50.435Z,10.65
2019-02-11T05:55:23.858Z,10.60
2019-02-11T05:55:54.769Z,10.65
2019-02-11T05:56:26.008Z,10.79
2019-02-11T05:56:57.159Z,10.95
2019-02-11T05:57:28.486Z,11.17
2019-02-11T05:57:59.659Z,11.39
2019-02-11T05:58:30.921Z,11.55
2019-02-11T05:59:02.128Z,11.75
2019-02-11T05:59:34.481Z,11.93
2019-02-11T06:00:10.250Z,12.11
2019-02-11T06:00:41.723Z,12.25
2019-02-11T06:01:13.024Z,12.36
2019-02-11T06:01:44.311Z,12.50
2019-02-11T06:02:17.411Z,12.64
2019-02-11T06:02:48.670Z,12.74
2019-02-11T06:03:19.968Z,12.85
2019-02-11T06:03:51.243Z,12.94
2019-02-11T06:04:22.470Z,13.05
2019-02-11T06:04:53.702Z,13.05
2019-02-11T06:05:24.884Z,12.99
2019-02-11T06:05:56.134Z,12.82
2019-02-11T06:06:27.386Z,12.66
2019-02-11T06:06:58.644Z,12.43
2019-02-11T06:07:29.933Z,12.20
2019-02-11T06:08:01.214Z,11.98
2019-02-11T06:08:32.532Z,11.75
2019-02-11T06:09:04.319Z,11.50
2019-02-11T06:09:35.578Z,11.29
2019-02-11T06:10:08.965Z,11.06
2019-02-11T06:10:40.236Z,10.86
2019-02-11T06:11:11.614Z,10.65
2019-02-11T06:11:42.863Z,10.49
2019-02-11T06:12:14.051Z,10.43
2019-02-11T06:12:45.322Z,10.51
2019-02-11T06:13:16.539Z,10.58
2019-02-11T06:13:47.751Z,10.76
2019-02-11T06:14:19.035Z,10.96
2019-02-11T06:14:50.226Z,11.13
2019-02-11T06:15:21.419Z,11.34
2019-02-11T06:15:52.638Z,11.54
2019-02-11T06:16:23.838Z,11.70
2019-02-11T06:16:55.104Z,11.88
2019-02-11T06:17:26.329Z,12.05
2019-02-11T06:17:57.528Z,12.19
2019-02-11T06:18:28.735Z,12.35
2019-02-11T06:18:59.986Z,12.49
2019-02-11T06:19:31.198Z,12.53
2019-02-11T06:20:05.523Z,12.67
2019-02-11T06:20:36.747Z,12.75
2019-02-11T06:21:07.950Z,12.85
2019-02-11T06:21:39.425Z,12.94
2019-02-11T06:22:10.657Z,13.04
2019-02-11T06:22:41.878Z,13.12
2019-02-11T06:23:13.191Z,13.18
2019-02-11T06:23:44.403Z,13.19
2019-02-11T06:24:15.630Z,13.11
2019-02-11T06:24:46.843Z,12.94
2019-02-11T06:25:18.056Z,12.72
2019-02-11T06:25:49.288Z,12.47
2019-02-11T06:26:20.562Z,12.26
2019-02-11T06:26:51.866Z,12.05
2019-02-11T06:27:23.138Z,11.80
2019-02-11T06:27:54.319Z,11.58
2019-02-11T06:28:25.570Z,11.37
2019-02-11T06:28:56.753Z,11.16
2019-02-11T06:29:27.993Z,10.96
2019-02-11T06:29:59.201Z,10.79
2019-02-11T06:30:30.718Z,10.71
2019-02-11T06:31:01.871Z,10.72
2019-02-11T06:31:33.104Z,10.86
2019-02-11T06:32:04.312Z,10.99
2019-02-11T06:32:35.612Z,11.19
2019-02-11T06:33:06.794Z,11.34
2019-02-11T06:33:38.066Z,11.54
2019-02-11T06:34:09.250Z,11.74
2019-02-11T06:34:40.659Z,11.89
2019-02-11T06:35:11.846Z,12.05
2019-02-11T06:35:43.227Z,12.20
2019-02-11T06:36:14.396Z,12.30
2019-02-11T06:36:45.639Z,12.44
2019-02-11T06:37:16.836Z,12.57
2019-02-11T06:37:48.117Z,12.68
2019-02-11T06:38:19.310Z,12.78
2019-02-11T06:38:50.655Z,12.90
2019-02-11T06:39:21.839Z,12.99
2019-02-11T06:39:53.067Z,13.09
2019-02-11T06:40:24.241Z,13.14
2019-02-11T06:40:55.487Z,13.11
2019-02-11T06:41:26.662Z,13.02
2019-02-11T06:41:57.897Z,12.90
2019-02-11T06:42:29.083Z,12.70
2019-02-11T06:43:00.309Z,12.43
2019-02-11T06:43:31.502Z,12.22
2019-02-11T06:44:02.724Z,11.99
2019-02-11T06:44:33.942Z,11.72
2019-02-11T06:45:13.088Z,11.49
2019-02-11T06:45:41.225Z,11.24
2019-02-11T06:46:12.443Z,11.03
2019-02-11T06:46:43.673Z,10.79